createdAt,value
2023-03-11T00:02:02.268Z,13.90
2023-03-11T00:04:32.404Z,13.38
2023-03-11T00:08:08.882Z,23.88
2023-03-11T00:10:08.585Z,12.05
2023-03-11T00:12:38.190Z,19.63
2023-03-11T00:15:13.220Z,12.55
2023-03-11T00:17:42.867Z,13.32
2023-03-11T00:20:22.484Z,12.63
2023-03-11T00:23:02.808Z,21.40
2023-03-11T00:25:33.896Z,20.58
2023-03-11T00:28:01.088Z,19.45
2023-03-11T00:30:54.920Z,16.88
2023-03-11T00:33:23.338Z,7.18
2023-03-11T00:35:58.647Z,15.38
2023-03-11T00:38:25.735Z,12.57
2023-03-11T00:40:54.879Z,19.05
2023-03-11T00:43:24.103Z,21.45
2023-03-11T00:45:51.302Z,10.75
2023-03-11T00:48:27.397Z,8.18
2023-03-11T00:50:54.451Z,11.82
2023-03-11T00:53:22.060Z,20.52
2023-03-11T00:55:48.842Z,14.02
2023-03-11T00:58:15.722Z,10.93
2023-03-11T01:00:42.800Z,15.35
2023-03-11T01:03:16.257Z,16.20
2023-03-11T01:05:46.063Z,16.65
2023-03-11T01:08:20.357Z,14.25
2023-03-11T01:10:47.377Z,10.50
2023-03-11T01:13:14.523Z,9.10
2023-03-11T01:15:43.958Z,7.05
2023-03-11T01:18:18.560Z,14.35
2023-03-11T01:20:50.822Z,15.43
2023-03-11T01:23:21.727Z,9.25
2023-03-11T01:25:48.809Z,9.93
2023-03-11T01:28:15.704Z,10.45
2023-03-11T01:30:43.342Z,13.55
2023-03-11T01:33:18.292Z,12.75
2023-03-11T01:35:46.144Z,12.38
2023-03-11T01:38:13.205Z,11.82
2023-03-11T01:40:51.042Z,10.07
2023-03-11T01:43:46.344Z,10.63
2023-03-11T01:46:31.476Z,11.40
2023-03-11T01:49:01.061Z,10.73
2023-03-11T01:51:35.830Z,11.77
2023-03-11T01:54:10.773Z,13.98
2023-03-11T01:56:39.264Z,6.05
2023-03-11T01:59:08.918Z,9.68
2023-03-11T02:01:40.352Z,16.77
2023-03-11T02:06:34.566Z,15.02
2023-03-11T02:09:02.014Z,14.93
2023-03-11T02:11:31.019Z,11.38
2023-03-11T02:14:02.595Z,7.80
2023-03-11T02:16:29.590Z,8.40
2023-03-11T02:19:05.367Z,13.70
2023-03-11T02:21:34.384Z,12.38
2023-03-11T02:24:21.304Z,11.43
2023-03-11T02:27:08.126Z,6.85
2023-03-11T02:29:37.629Z,11.05
2023-03-11T02:32:09.472Z,15.95
2023-03-11T02:34:39.604Z,17.73
2023-03-11T02:37:11.769Z,17.83
2023-03-11T02:39:50.305Z,9.35
2023-03-11T02:42:26.149Z,7.57
2023-03-11T02:45:04.556Z,7.93
2023-03-11T02:47:32.422Z,4.63
2023-03-11T02:49:59.190Z,13.77
2023-03-11T02:52:28.326Z,8.52
2023-03-11T02:54:55.501Z,5.30
2023-03-11T02:57:22.759Z,5.78
2023-03-11T02:59:58.220Z,9.45
2023-03-11T03:02:25.152Z,10.05
2023-03-11T03:04:52.012Z,8.68
2023-03-11T03:07:18.816Z,12.80
2023-03-11T03:09:45.662Z,8.75
2023-03-11T03:12:12.530Z,4.85
2023-03-11T03:14:39.349Z,6.72
2023-03-11T03:17:06.356Z,11.15
2023-03-11T03:19:33.346Z,6.65
2023-03-11T03:22:00.114Z,6.65
2023-03-11T03:24:26.897Z,13.60
2023-03-11T03:26:53.661Z,4.35
2023-03-11T03:29:20.583Z,8.57
2023-03-11T03:31:47.581Z,10.18
2023-03-11T03:34:14.656Z,6.40
2023-03-11T03:36:41.455Z,14.98
2023-03-11T03:39:08.270Z,9.02
2023-03-11T03:41:35.099Z,9.32
2023-03-11T03:44:01.953Z,8.27
2023-03-11T03:46:28.949Z,7.30
2023-03-11T03:48:56.291Z,10.77
2023-03-11T03:51:23.219Z,10.07
2023-03-11T03:53:49.976Z,3.03
2023-03-11T03:56:18.099Z,9.65
2023-03-11T03:58:45.926Z,9.18
2023-03-11T04:01:13.480Z,10.43
2023-03-11T04:03:40.902Z,15.30
2023-03-11T04:06:18.912Z,4.85
2023-03-11T04:08:45.771Z,6.38
2023-03-11T04:11:13.246Z,12.35
2023-03-11T04:13:40.335Z,5.53
2023-03-11T04:16:08.050Z,8.32
2023-03-11T04:18:35.478Z,6.45
2023-03-11T04:21:06.690Z,10.27
2023-03-11T04:23:33.717Z,10.45
2023-03-11T04:26:00.962Z,6.10
2023-03-11T04:28:28.246Z,5.95
2023-03-11T04:30:55.287Z,9.52
2023-03-11T04:33:22.377Z,10.63
2023-03-11T04:35:49.212Z,10.93
2023-03-11T04:38:16.036Z,3.17
2023-03-11T04:40:42.861Z,10.48
2023-03-11T04:43:09.686Z,8.65
2023-03-11T04:45:39.011Z,10.65
2023-03-11T04:48:05.869Z,8.63
2023-03-11T04:50:32.770Z,11.05
2023-03-11T04:52:59.630Z,6.63
2023-03-11T04:55:26.757Z,8.13
2023-03-11T04:57:53.601Z,7.72
2023-03-11T05:00:25.127Z,5.85
2023-03-11T05:02:52.579Z,11.77
2023-03-11T05:05:20.311Z,3.22
2023-03-11T05:07:47.719Z,5.75
2023-03-11T05:10:15.547Z,8.60
2023-03-11T05:12:42.767Z,6.47
2023-03-11T05:15:10.148Z,7.60
2023-03-11T05:17:36.931Z,8.10
2023-03-11T05:20:07.489Z,9.55
2023-03-11T05:22:34.898Z,5.40
2023-03-11T05:25:01.817Z,11.35
2023-03-11T05:27:28.707Z,6.38
2023-03-11T05:29:55.527Z,13.52
2023-03-11T05:32:22.540Z,5.50
2023-03-11T05:34:50.574Z,5.13
2023-03-11T05:37:17.593Z,9.15
2023-03-11T05:39:45.454Z,7.55
2023-03-11T05:42:12.499Z,4.15
2023-03-11T05:44:39.438Z,11.30
2023-03-11T05:47:06.373Z,4.78
2023-03-11T05:49:33.324Z,6.97
2023-03-11T05:52:00.145Z,5.60
2023-03-11T05:54:26.978Z,8.52
2023-03-11T05:56:53.827Z,12.35
2023-03-11T05:59:20.724Z,9.43
2023-03-11T06:01:47.594Z,11.40
2023-03-11T06:04:14.503Z,13.70
2023-03-11T06:06:42.440Z,7.70
2023-03-11T06:09:15.670Z,13.93
2023-03-11T06:11:42.693Z,4.70
2023-03-11T06:14:15.249Z,7.63
2023-03-11T06:16:42.451Z,6.28
2023-03-11T06:19:09.898Z,10.55
2023-03-11T06:21:36.842Z,6.32
2023-03-11T06:24:05.055Z,8.60
2023-03-11T06:26:31.877Z,10.73
2023-03-11T06:28:58.795Z,5.88
2023-03-11T06:31:28.128Z,11.75
2023-03-11T06:33:59.322Z,6.97
2023-03-11T06:36:27.000Z,10.40
2023-03-11T06:38:55.086Z,10.90
2023-03-11T06:41:22.516Z,10.65
2023-03-11T06:43:50.560Z,10.05
2023-03-11T06:46:20.463Z,12.77
2023-03-11T06:48:51.817Z,8.43
2023-03-11T06:51:23.217Z,7.68
2023-03-11T06:56:17.507Z,17.80
2023-03-11T06:58:44.806Z,8.88
2023-03-11T07:01:26.118Z,12.23
2023-03-11T07:03:53.289Z,11.20
2023-03-11T07:06:25.071Z,10.40
2023-03-11T07:08:53.038Z,5.93
2023-03-11T07:11:27.928Z,7.35
2023-03-11T07:13:55.273Z,8.75
2023-03-11T07:16:27.545Z,8.43
2023-03-11T07:19:00.934Z,11.88
2023-03-11T07:21:29.388Z,10.90
2023-03-11T07:23:58.792Z,9.82
2023-03-11T07:26:27.697Z,14.57
2023-03-11T07:28:58.049Z,6.97
2023-03-11T07:31:31.123Z,10.63
2023-03-11T07:34:00.279Z,9.13
2023-03-11T07:36:28.563Z,11.43
2023-03-11T07:39:04.358Z,5.63
2023-03-11T07:41:33.745Z,10.02
2023-03-11T07:44:11.656Z,11.48
2023-03-11T07:46:38.843Z,9.15
2023-03-11T07:49:11.968Z,7.30
2023-03-11T07:51:46.262Z,11.70
2023-03-11T07:54:13.385Z,12.48
2023-03-11T07:56:43.426Z,11.15
2023-03-11T07:59:10.658Z,11.90
2023-03-11T08:01:40.848Z,6.88
2023-03-11T08:04:10.816Z,8.10
2023-03-11T08:06:40.596Z,4.53
2023-03-11T08:09:09.282Z,10.40
2023-03-11T08:11:36.884Z,5.13
2023-03-11T08:14:04.061Z,4.20
2023-03-11T08:16:31.802Z,4.68
2023-03-11T08:18:58.704Z,4.72
2023-03-11T08:21:28.862Z,7.43
2023-03-11T08:23:58.917Z,6.28
2023-03-11T08:26:26.273Z,7.20
2023-03-11T08:28:53.096Z,4.70
2023-03-11T08:31:25.873Z,5.20
2023-03-11T08:33:54.607Z,8.75
2023-03-11T08:36:21.951Z,4.95
2023-03-11T08:38:48.987Z,4.13
2023-03-11T08:41:16.055Z,3.35
2023-03-11T08:43:42.999Z,2.13
2023-03-11T08:46:20.680Z,3.42
2023-03-11T08:48:47.493Z,6.38
2023-03-11T08:51:14.913Z,4.38
2023-03-11T08:53:41.994Z,3.25
2023-03-11T08:56:09.726Z,5.53
2023-03-11T08:58:36.598Z,5.82
2023-03-11T09:01:05.992Z,2.85
2023-03-11T09:03:34.079Z,3.70
2023-03-11T09:06:04.323Z,1.15
2023-03-11T09:08:31.399Z,5.75
2023-03-11T09:10:58.223Z,4.50
2023-03-11T09:13:24.998Z,3.55
2023-03-11T09:15:52.637Z,4.80
2023-03-11T09:18:19.501Z,3.90
2023-03-11T09:20:46.548Z,3.97
2023-03-11T09:23:15.350Z,7.88
2023-03-11T09:25:42.470Z,4.38
2023-03-11T09:28:09.344Z,7.57
2023-03-11T09:30:36.112Z,3.15
2023-03-11T09:33:02.919Z,2.95
2023-03-11T09:35:29.743Z,4.80
2023-03-11T09:37:56.626Z,7.35
2023-03-11T09:40:25.614Z,7.70
2023-03-11T09:43:16.919Z,4.20
2023-03-11T09:45:55.224Z,4.22
2023-03-11T09:48:36.201Z,8.93
2023-03-11T09:54:14.306Z,4.03
2023-03-11T09:56:44.426Z,5.75
2023-03-11T09:59:35.666Z,4.70
2023-03-11T10:02:04.113Z,10.60
2023-03-11T10:04:56.965Z,7.75
2023-03-11T10:07:36.357Z,4.57
2023-03-11T10:10:03.794Z,2.63
2023-03-11T10:12:37.249Z,6.18
2023-03-11T10:15:23.288Z,4.13
2023-03-11T10:18:23.720Z,7.07
2023-03-11T10:21:00.773Z,4.88
2023-03-11T10:23:36.996Z,4.47
2023-03-11T10:26:15.542Z,3.40
2023-03-11T10:28:52.235Z,4.68
2023-03-11T10:31:28.025Z,8.80
2023-03-11T10:34:14.167Z,4.90
2023-03-11T10:36:52.525Z,3.17
2023-03-11T10:39:20.613Z,7.57
2023-03-11T10:41:53.748Z,3.40
2023-03-11T10:44:40.969Z,7.25
2023-03-11T10:47:16.782Z,3.15
2023-03-11T10:49:43.580Z,4.03
2023-03-11T10:52:10.467Z,3.55
2023-03-11T10:54:58.657Z,9.57
2023-03-11T10:57:29.098Z,6.57
2023-03-11T10:59:58.159Z,2.45
2023-03-11T11:02:42.679Z,3.88
2023-03-11T11:05:17.275Z,4.05
2023-03-11T11:07:45.994Z,7.30
2023-03-11T11:10:18.700Z,4.93
2023-03-11T11:13:00.833Z,5.43
2023-03-11T11:15:33.891Z,8.02
2023-03-11T11:18:06.834Z,2.80
2023-03-11T11:20:34.718Z,5.82
2023-03-11T11:23:03.850Z,7.38
2023-03-11T11:25:44.183Z,8.90
2023-03-11T11:28:17.408Z,7.67
2023-03-11T11:30:56.813Z,6.03
2023-03-11T11:33:41.730Z,3.42
2023-03-11T11:36:16.223Z,7.63
2023-03-11T11:38:43.263Z,5.85
2023-03-11T11:41:15.628Z,4.85
2023-03-11T11:44:00.776Z,4.03
2023-03-11T11:49:36.988Z,2.53
2023-03-11T11:52:08.699Z,4.25
2023-03-11T11:54:44.159Z,6.90
2023-03-11T11:57:13.522Z,5.97
2023-03-11T11:59:42.290Z,5.90
2023-03-11T12:02:21.014Z,3.05
2023-03-11T12:04:58.467Z,5.45
2023-03-11T12:08:03.070Z,3.97
2023-03-11T12:10:37.430Z,7.32
2023-03-11T12:13:23.191Z,5.80
2023-03-11T12:15:59.549Z,3.22
2023-03-11T12:18:35.590Z,5.40
2023-03-11T12:21:23.902Z,6.35
2023-03-11T12:23:56.958Z,3.90
2023-03-11T12:26:30.065Z,2.22
2023-03-11T12:29:16.199Z,1.83
2023-03-11T12:31:48.534Z,3.15
2023-03-11T12:34:21.127Z,5.32
2023-03-11T12:36:49.962Z,8.10
2023-03-11T12:39:36.670Z,6.40
2023-03-11T12:42:17.782Z,2.53
2023-03-11T12:44:48.631Z,10.48
2023-03-11T12:49:44.083Z,2.17
2023-03-11T12:52:13.877Z,3.70
2023-03-11T12:54:46.275Z,3.40
2023-03-11T12:57:31.202Z,2.85
2023-03-11T13:00:23.268Z,5.78
2023-03-11T13:02:56.266Z,3.17
2023-03-11T13:05:46.807Z,6.32
2023-03-11T13:08:23.009Z,3.70
2023-03-11T13:10:51.758Z,6.07
2023-03-11T13:13:35.317Z,3.15
2023-03-11T13:16:14.865Z,6.05
2023-03-11T13:18:44.447Z,4.22
2023-03-11T13:21:32.781Z,4.78
2023-03-11T13:24:54.720Z,3.10
2023-03-11T13:27:37.386Z,18.42
2023-03-11T13:30:17.940Z,3.88
2023-03-11T13:32:50.742Z,2.15
2023-03-11T13:35:43.505Z,3.70
2023-03-11T13:38:38.238Z,4.78
2023-03-11T13:41:15.257Z,2.60
2023-03-11T13:43:48.322Z,4.70
2023-03-11T13:46:38.174Z,2.97
2023-03-11T13:49:45.022Z,6.15
2023-03-11T13:52:22.208Z,3.33
2023-03-11T13:54:53.461Z,3.15
2023-03-11T14:00:05.663Z,2.53
2023-03-11T14:02:32.633Z,3.55
2023-03-11T14:05:17.765Z,1.65
2023-03-11T14:07:44.786Z,1.80
2023-03-11T14:10:22.773Z,1.15
2023-03-11T14:12:49.906Z,5.95
2023-03-11T14:15:26.653Z,3.42
2023-03-11T14:17:54.296Z,2.97
2023-03-11T14:20:25.666Z,3.65
2023-03-11T14:22:55.222Z,4.82
2023-03-11T14:25:31.370Z,3.83
2023-03-11T14:28:01.977Z,1.88
2023-03-11T14:30:33.963Z,8.68
2023-03-11T14:33:04.992Z,8.00
2023-03-11T14:35:34.005Z,3.17
2023-03-11T14:38:01.501Z,5.45
2023-03-11T14:40:42.153Z,4.45
2023-03-11T14:43:11.776Z,1.38
2023-03-11T14:45:41.841Z,1.83
2023-03-11T14:48:27.728Z,3.22
2023-03-11T14:50:58.990Z,2.67
2023-03-11T14:53:48.485Z,3.95
2023-03-11T14:56:21.964Z,4.22
2023-03-11T14:59:08.170Z,4.78
2023-03-11T15:01:41.910Z,2.88
2023-03-11T15:04:11.920Z,4.32
2023-03-11T15:06:42.657Z,4.45
2023-03-11T15:09:18.747Z,3.50
2023-03-11T15:12:01.116Z,1.30
2023-03-11T15:14:29.271Z,3.67
2023-03-11T15:17:23.244Z,1.58
2023-03-11T15:20:09.882Z,2.30
2023-03-11T15:22:43.950Z,4.97
2023-03-11T15:25:19.383Z,3.40
2023-03-11T15:27:47.764Z,4.20
2023-03-11T15:30:31.537Z,6.53
2023-03-11T15:32:59.183Z,5.35
2023-03-11T15:35:30.019Z,6.03
2023-03-11T15:38:22.360Z,5.05
2023-03-11T15:40:59.086Z,4.00
2023-03-11T15:43:32.912Z,4.57
2023-03-11T15:46:03.149Z,3.17
2023-03-11T15:48:36.381Z,3.30
2023-03-11T15:51:04.170Z,1.77
2023-03-11T15:53:33.870Z,4.03
2023-03-11T15:56:15.089Z,3.35
2023-03-11T15:58:42.408Z,15.27
2023-03-11T16:01:10.057Z,6.32
2023-03-11T16:03:39.187Z,5.53
2023-03-11T16:06:08.530Z,4.80
2023-03-11T16:08:35.936Z,6.40
2023-03-11T16:11:03.104Z,6.15
2023-03-11T16:13:30.316Z,8.10
2023-03-11T16:15:59.259Z,3.78
2023-03-11T16:18:26.301Z,3.35
2023-03-11T16:20:55.586Z,9.30
2023-03-11T16:23:48.536Z,1.85
2023-03-11T16:26:24.804Z,4.20
2023-03-11T16:28:51.686Z,3.78
2023-03-11T16:31:19.058Z,2.33
2023-03-11T16:33:46.204Z,5.18
2023-03-11T16:36:13.208Z,4.78
2023-03-11T16:38:50.442Z,7.97
2023-03-11T16:41:17.734Z,5.35
2023-03-11T16:43:45.126Z,10.93
2023-03-11T16:46:12.264Z,6.53
2023-03-11T16:48:39.332Z,7.90
2023-03-11T16:51:09.994Z,5.72
2023-03-11T16:53:37.910Z,8.57
2023-03-11T16:56:05.812Z,4.38
2023-03-11T16:58:40.232Z,7.18
2023-03-11T17:01:07.183Z,7.47
2023-03-11T17:03:42.496Z,7.55
2023-03-11T17:06:12.309Z,7.25
2023-03-11T17:08:39.485Z,47.47
2023-03-11T17:11:13.871Z,7.55
2023-03-11T17:13:41.138Z,3.53
2023-03-11T17:16:08.707Z,5.97
2023-03-11T17:18:39.075Z,9.40
2023-03-11T17:21:10.951Z,11.73
2023-03-11T17:23:38.338Z,10.85
2023-03-11T17:26:13.489Z,37.35
2023-03-11T17:28:44.208Z,44.38
2023-03-11T17:31:15.608Z,9.75
2023-03-11T17:36:16.102Z,15.63
2023-03-11T17:38:44.168Z,10.95
2023-03-11T17:41:13.728Z,12.55
2023-03-11T17:43:40.986Z,21.05
2023-03-11T17:46:14.535Z,39.60
2023-03-11T17:48:42.805Z,26.77
2023-03-11T17:51:12.255Z,20.33
2023-03-11T17:53:40.703Z,20.80
2023-03-11T17:56:11.701Z,11.80
2023-03-11T17:58:42.879Z,11.27
2023-03-11T18:01:28.193Z,10.57
2023-03-11T18:03:55.756Z,6.20
2023-03-11T18:06:23.372Z,4.80
2023-03-11T18:08:50.869Z,4.32
2023-03-11T18:11:24.121Z,5.70
2023-03-11T18:13:51.881Z,7.15
2023-03-11T18:16:24.953Z,7.55
2023-03-11T18:18:52.551Z,15.68
2023-03-11T18:21:25.001Z,10.45
2023-03-11T18:23:54.319Z,28.50
2023-03-11T18:26:24.278Z,28.52
2023-03-11T18:28:59.748Z,14.15
2023-03-11T18:31:36.508Z,6.78
2023-03-11T18:34:12.430Z,6.65
2023-03-11T18:36:41.340Z,5.90
2023-03-11T18:39:15.274Z,6.88
2023-03-11T18:41:51.819Z,6.72
2023-03-11T18:44:20.995Z,5.13
2023-03-11T18:46:49.417Z,58.95
2023-03-11T18:49:16.760Z,61.58
2023-03-11T18:51:43.680Z,100.05
2023-03-11T18:54:11.279Z,68.57
2023-03-11T18:56:38.166Z,28.60
2023-03-11T18:59:08.051Z,14.45
2023-03-11T19:01:35.087Z,11.32
2023-03-11T19:04:03.726Z,16.23
2023-03-11T19:06:30.592Z,10.70
2023-03-11T19:08:58.039Z,16.48
2023-03-11T19:11:26.687Z,13.80
2023-03-11T19:13:54.181Z,37.58
2023-03-11T19:16:23.818Z,39.53
2023-03-11T19:18:51.826Z,37.13
2023-03-11T19:21:18.712Z,38.97
2023-03-11T19:23:49.887Z,48.53
2023-03-11T19:26:16.885Z,67.50
2023-03-11T19:28:46.794Z,56.65
2023-03-11T19:31:15.584Z,54.70
2023-03-11T19:33:47.967Z,30.73
2023-03-11T19:36:17.521Z,18.90
2023-03-11T19:38:45.210Z,20.35
2023-03-11T19:41:14.767Z,17.75
2023-03-11T19:43:42.653Z,16.15
2023-03-11T19:46:12.289Z,15.57
2023-03-11T19:48:39.484Z,10.50
2023-03-11T19:51:06.869Z,8.38
2023-03-11T19:53:38.785Z,11.35
2023-03-11T19:56:06.843Z,10.50
2023-03-11T19:58:34.573Z,12.65
2023-03-11T20:01:04.851Z,7.88
2023-03-11T20:03:31.758Z,8.52
2023-03-11T20:06:05.315Z,11.00
2023-03-11T20:08:36.857Z,18.73
2023-03-11T20:13:37.542Z,18.48
2023-03-11T20:16:06.833Z,18.10
2023-03-11T20:18:33.911Z,33.72
2023-03-11T20:21:06.808Z,38.33
2023-03-11T20:23:34.740Z,43.88
2023-03-11T20:26:11.994Z,21.63
2023-03-11T20:28:39.021Z,23.10
2023-03-11T20:31:14.363Z,22.73
2023-03-11T20:33:41.917Z,27.42
2023-03-11T20:36:11.843Z,24.58
2023-03-11T20:38:44.558Z,31.50
2023-03-11T20:41:11.760Z,42.75
2023-03-11T20:43:39.775Z,32.55
2023-03-11T20:46:10.057Z,23.92
2023-03-11T20:48:39.914Z,18.25
2023-03-11T20:51:13.177Z,15.82
2023-03-11T20:53:40.327Z,26.25
2023-03-11T20:56:13.334Z,41.95
2023-03-11T20:58:43.146Z,60.15
2023-03-11T21:01:19.721Z,40.30
2023-03-11T21:03:48.188Z,30.15
2023-03-11T21:06:28.498Z,25.45
2023-03-11T21:09:01.403Z,25.38
2023-03-11T21:11:33.296Z,19.80
2023-03-11T21:14:00.286Z,25.70
2023-03-11T21:16:37.111Z,31.30
2023-03-11T21:19:08.438Z,26.33
2023-03-11T21:21:36.114Z,27.63
2023-03-11T21:24:04.454Z,24.15
2023-03-11T21:26:32.929Z,22.35
2023-03-11T21:29:00.270Z,15.52
2023-03-11T21:31:30.117Z,15.93
2023-03-11T21:34:03.981Z,12.18
2023-03-11T21:36:31.368Z,21.83
2023-03-11T21:38:58.438Z,23.77
2023-03-11T21:41:27.663Z,14.43
2023-03-11T21:43:57.953Z,16.60
2023-03-11T21:46:34.080Z,13.73
2023-03-11T21:49:04.914Z,23.27
2023-03-11T21:51:32.247Z,22.73
2023-03-11T21:53:59.439Z,15.15
2023-03-11T21:56:33.460Z,19.20
2023-03-11T21:59:01.599Z,19.90
2023-03-11T22:01:29.312Z,21.17
2023-03-11T22:03:56.711Z,18.77
2023-03-11T22:06:24.311Z,17.40
2023-03-11T22:08:54.451Z,9.30
2023-03-11T22:11:21.662Z,17.05
2023-03-11T22:13:51.067Z,17.55
2023-03-11T22:16:19.192Z,21.30
2023-03-11T22:18:46.868Z,16.85
2023-03-11T22:21:21.166Z,13.82
2023-03-11T22:23:49.729Z,22.70
2023-03-11T22:26:16.965Z,18.42
2023-03-11T22:28:48.431Z,28.05
2023-03-11T22:33:42.457Z,20.58
2023-03-11T22:36:13.557Z,25.15
2023-03-11T22:38:45.222Z,22.98
2023-03-11T22:41:14.117Z,16.48
2023-03-11T22:43:41.166Z,20.08
2023-03-11T22:46:08.505Z,12.20
2023-03-11T22:48:35.842Z,13.60
2023-03-11T22:51:05.251Z,19.35
2023-03-11T22:53:34.537Z,14.70
2023-03-11T22:56:08.957Z,12.15
2023-03-11T22:58:36.524Z,9.55
2023-03-11T23:01:05.497Z,17.38
2023-03-11T23:03:36.025Z,14.15
2023-03-11T23:06:09.304Z,12.20
2023-03-11T23:08:37.229Z,12.63
2023-03-11T23:11:06.839Z,10.02
2023-03-11T23:13:35.887Z,8.77
2023-03-11T23:16:08.149Z,10.60
2023-03-11T23:18:35.666Z,12.82
2023-03-11T23:21:02.610Z,9.93
2023-03-11T23:23:29.538Z,11.32
2023-03-11T23:25:56.545Z,11.38
2023-03-11T23:28:23.274Z,8.88
2023-03-11T23:30:50.071Z,10.75
2023-03-11T23:33:16.847Z,7.18
2023-03-11T23:35:43.919Z,13.65
2023-03-11T23:38:10.816Z,15.77
2023-03-11T23:40:40.631Z,16.58
2023-03-11T23:43:07.474Z,6.60
2023-03-11T23:45:34.186Z,5.88
2023-03-11T23:48:00.927Z,9.68
2023-03-11T23:50:27.867Z,8.48
2023-03-11T23:52:54.684Z,11.60
2023-03-11T23:55:21.549Z,6.60
2023-03-11T23:57:48.402Z,5.78
